sensor_id;sensor_type;location;lat;lon;timestamp;P1;durP1;ratioP1;P2;durP2;ratioP2
9374;SDS011;4727;51.202;6.344;2022-10-23T00:00:29;6.97;;;3.90;;
9374;SDS011;4727;51.202;6.344;2022-10-23T00:02:55;7.13;;;4.10;;
9374;SDS011;4727;51.202;6.344;2022-10-23T00:05:21;10.93;;;4.93;;
9374;SDS011;4727;51.202;6.344;2022-10-23T00:07:48;9.77;;;4.10;;
9374;SDS011;4727;51.202;6.344;2022-10-23T00:10:15;7.77;;;4.33;;
9374;SDS011;4727;51.202;6.344;2022-10-23T00:12:40;10.13;;;4.40;;
9374;SDS011;4727;51.202;6.344;2022-10-23T00:15:06;9.17;;;4.77;;
9374;SDS011;4727;51.202;6.344;2022-10-23T00:17:32;7.40;;;4.83;;
9374;SDS011;4727;51.202;6.344;2022-10-23T00:19:59;6.13;;;4.50;;
9374;SDS011;4727;51.202;6.344;2022-10-23T00:22:24;8.30;;;4.90;;
9374;SDS011;4727;51.202;6.344;2022-10-23T00:24:50;9.20;;;4.73;;
9374;SDS011;4727;51.202;6.344;2022-10-23T00:27:16;13.30;;;4.90;;
9374;SDS011;4727;51.202;6.344;2022-10-23T00:29:43;8.00;;;5.03;;
9374;SDS011;4727;51.202;6.344;2022-10-23T00:32:09;6.97;;;4.80;;
9374;SDS011;4727;51.202;6.344;2022-10-23T00:34:34;5.97;;;5.10;;
9374;SDS011;4727;51.202;6.344;2022-10-23T00:37:00;10.53;;;4.60;;
9374;SDS011;4727;51.202;6.344;2022-10-23T00:39:27;8.57;;;4.73;;
9374;SDS011;4727;51.202;6.344;2022-10-23T00:41:52;8.40;;;4.83;;
9374;SDS011;4727;51.202;6.344;2022-10-23T00:46:47;9.10;;;4.33;;
9374;SDS011;4727;51.202;6.344;2022-10-23T00:49:13;11.97;;;4.53;;
9374;SDS011;4727;51.202;6.344;2022-10-23T00:51:41;13.13;;;5.03;;
9374;SDS011;4727;51.202;6.344;2022-10-23T00:54:09;9.97;;;4.67;;
9374;SDS011;4727;51.202;6.344;2022-10-23T00:56:38;11.77;;;4.90;;
9374;SDS011;4727;51.202;6.344;2022-10-23T00:59:06;9.23;;;4.63;;
9374;SDS011;4727;51.202;6.344;2022-10-23T01:01:32;9.47;;;5.07;;
9374;SDS011;4727;51.202;6.344;2022-10-23T01:03:58;6.77;;;4.37;;
9374;SDS011;4727;51.202;6.344;2022-10-23T01:24:51;14.17;;;4.90;;
9374;SDS011;4727;51.202;6.344;2022-10-23T01:27:24;11.97;;;5.87;;
9374;SDS011;4727;51.202;6.344;2022-10-23T07:30:23;7.90;;;5.37;;
9374;SDS011;4727;51.202;6.344;2022-10-23T07:32:49;6.63;;;5.03;;
9374;SDS011;4727;51.202;6.344;2022-10-23T09:38:58;9.27;;;4.00;;
9374;SDS011;4727;51.202;6.344;2022-10-23T09:51:52;5.77;;;3.27;;
9374;SDS011;4727;51.202;6.344;2022-10-23T09:54:22;6.47;;;3.60;;
9374;SDS011;4727;51.202;6.344;2022-10-23T09:56:48;5.57;;;3.63;;
9374;SDS011;4727;51.202;6.344;2022-10-23T09:59:20;5.50;;;3.30;;
9374;SDS011;4727;51.202;6.344;2022-10-23T10:01:56;4.23;;;3.70;;
9374;SDS011;4727;51.202;6.344;2022-10-23T10:04:31;6.70;;;3.70;;
9374;SDS011;4727;51.202;6.344;2022-10-23T10:06:59;6.27;;;3.50;;
9374;SDS011;4727;51.202;6.344;2022-10-23T10:09:26;5.30;;;3.70;;
9374;SDS011;4727;51.202;6.344;2022-10-23T10:11:56;5.70;;;3.47;;
9374;SDS011;4727;51.202;6.344;2022-10-23T10:20:44;4.37;;;3.27;;
9374;SDS011;4727;51.202;6.344;2022-10-23T10:36:52;5.73;;;4.17;;
9374;SDS011;4727;51.202;6.344;2022-10-23T10:39:26;5.20;;;3.47;;
9374;SDS011;4727;51.202;6.344;2022-10-23T10:45:07;5.90;;;3.70;;
9374;SDS011;4727;51.202;6.344;2022-10-23T10:48:02;4.10;;;3.27;;
9374;SDS011;4727;51.202;6.344;2022-10-23T10:50:41;5.97;;;3.30;;
9374;SDS011;4727;51.202;6.344;2022-10-23T10:53:12;4.30;;;3.33;;
9374;SDS011;4727;51.202;6.344;2022-10-23T10:56:01;5.83;;;3.50;;
9374;SDS011;4727;51.202;6.344;2022-10-23T10:58:31;4.00;;;3.30;;
9374;SDS011;4727;51.202;6.344;2022-10-23T11:01:05;3.83;;;3.60;;
9374;SDS011;4727;51.202;6.344;2022-10-23T11:03:45;8.07;;;3.63;;
9374;SDS011;4727;51.202;6.344;2022-10-23T11:06:17;5.23;;;3.70;;
9374;SDS011;4727;51.202;6.344;2022-10-23T11:08:46;5.87;;;3.80;;
9374;SDS011;4727;51.202;6.344;2022-10-23T11:13:42;5.97;;;3.73;;
9374;SDS011;4727;51.202;6.344;2022-10-23T11:16:51;6.43;;;3.90;;
9374;SDS011;4727;51.202;6.344;2022-10-23T11:21:46;6.07;;;3.60;;
9374;SDS011;4727;51.202;6.344;2022-10-23T11:30:18;5.40;;;3.73;;
9374;SDS011;4727;51.202;6.344;2022-10-23T11:38:39;4.30;;;3.87;;
9374;SDS011;4727;51.202;6.344;2022-10-23T11:41:17;5.90;;;3.77;;
9374;SDS011;4727;51.202;6.344;2022-10-23T11:43:50;4.23;;;3.80;;
9374;SDS011;4727;51.202;6.344;2022-10-23T11:48:48;4.07;;;3.60;;
9374;SDS011;4727;51.202;6.344;2022-10-23T11:51:27;3.77;;;3.47;;
9374;SDS011;4727;51.202;6.344;2022-10-23T11:59:32;3.90;;;3.03;;
9374;SDS011;4727;51.202;6.344;2022-10-23T12:02:00;7.23;;;3.60;;
9374;SDS011;4727;51.202;6.344;2022-10-23T12:04:49;4.93;;;3.00;;
9374;SDS011;4727;51.202;6.344;2022-10-23T12:07:25;3.27;;;2.97;;
9374;SDS011;4727;51.202;6.344;2022-10-23T12:10:06;3.97;;;3.03;;
9374;SDS011;4727;51.202;6.344;2022-10-23T12:12:53;8.37;;;3.10;;
9374;SDS011;4727;51.202;6.344;2022-10-23T12:15:25;3.07;;;2.67;;
9374;SDS011;4727;51.202;6.344;2022-10-23T12:17:53;5.33;;;2.37;;
9374;SDS011;4727;51.202;6.344;2022-10-23T12:20:23;3.53;;;2.60;;
9374;SDS011;4727;51.202;6.344;2022-10-23T12:23:14;2.17;;;1.97;;
9374;SDS011;4727;51.202;6.344;2022-10-23T12:28:46;3.27;;;2.53;;
9374;SDS011;4727;51.202;6.344;2022-10-23T12:39:24;6.03;;;2.53;;
9374;SDS011;4727;51.202;6.344;2022-10-23T12:41:54;6.80;;;2.70;;
9374;SDS011;4727;51.202;6.344;2022-10-23T12:44:21;5.60;;;2.60;;
9374;SDS011;4727;51.202;6.344;2022-10-23T12:46:50;2.37;;;2.17;;
9374;SDS011;4727;51.202;6.344;2022-10-23T12:49:25;3.20;;;2.90;;
9374;SDS011;4727;51.202;6.344;2022-10-23T12:52:03;4.77;;;2.53;;
9374;SDS011;4727;51.202;6.344;2022-10-23T12:54:30;4.53;;;2.70;;
9374;SDS011;4727;51.202;6.344;2022-10-23T12:56:57;2.57;;;2.37;;
9374;SDS011;4727;51.202;6.344;2022-10-23T12:59:35;5.57;;;2.40;;
9374;SDS011;4727;51.202;6.344;2022-10-23T13:02:20;4.77;;;2.63;;
9374;SDS011;4727;51.202;6.344;2022-10-23T13:04:51;4.37;;;2.50;;
9374;SDS011;4727;51.202;6.344;2022-10-23T13:07:20;4.33;;;2.80;;
9374;SDS011;4727;51.202;6.344;2022-10-23T13:09:52;6.93;;;2.73;;
9374;SDS011;4727;51.202;6.344;2022-10-23T13:12:26;3.37;;;2.60;;
9374;SDS011;4727;51.202;6.344;2022-10-23T13:18:18;7.23;;;2.43;;
9374;SDS011;4727;51.202;6.344;2022-10-23T13:20:31;2.83;;;2.60;;
9374;SDS011;4727;51.202;6.344;2022-10-23T13:23:16;3.40;;;2.80;;
9374;SDS011;4727;51.202;6.344;2022-10-23T13:25:54;3.67;;;2.80;;
9374;SDS011;4727;51.202;6.344;2022-10-23T13:28:40;3.67;;;2.83;;
9374;SDS011;4727;51.202;6.344;2022-10-23T13:33:37;3.20;;;2.90;;
9374;SDS011;4727;51.202;6.344;2022-10-23T13:38:41;5.03;;;3.00;;
9374;SDS011;4727;51.202;6.344;2022-10-23T13:41:18;3.80;;;2.83;;
9374;SDS011;4727;51.202;6.344;2022-10-23T13:43:45;5.30;;;3.17;;
9374;SDS011;4727;51.202;6.344;2022-10-23T13:46:15;4.53;;;2.97;;
9374;SDS011;4727;51.202;6.344;2022-10-23T13:48:43;3.83;;;3.13;;
9374;SDS011;4727;51.202;6.344;2022-10-23T13:51:11;6.17;;;3.40;;
9374;SDS011;4727;51.202;6.344;2022-10-23T13:53:39;5.63;;;3.67;;
9374;SDS011;4727;51.202;6.344;2022-10-23T13:56:05;5.33;;;3.17;;
9374;SDS011;4727;51.202;6.344;2022-10-23T13:58:30;3.90;;;2.90;;
9374;SDS011;4727;51.202;6.344;2022-10-23T14:00:56;4.57;;;3.23;;
9374;SDS011;4727;51.202;6.344;2022-10-23T14:03:22;3.70;;;3.17;;
9374;SDS011;4727;51.202;6.344;2022-10-23T14:05:49;4.53;;;2.93;;
9374;SDS011;4727;51.202;6.344;2022-10-23T14:08:15;8.20;;;3.37;;
9374;SDS011;4727;51.202;6.344;2022-10-23T14:10:40;4.77;;;3.47;;
9374;SDS011;4727;51.202;6.344;2022-10-23T14:13:06;4.20;;;3.80;;
9374;SDS011;4727;51.202;6.344;2022-10-23T14:15:32;6.10;;;4.00;;
9374;SDS011;4727;51.202;6.344;2022-10-23T14:17:57;4.90;;;4.43;;
9374;SDS011;4727;51.202;6.344;2022-10-23T14:20:23;7.60;;;4.10;;
9374;SDS011;4727;51.202;6.344;2022-10-23T14:22:49;7.60;;;4.00;;
9374;SDS011;4727;51.202;6.344;2022-10-23T14:25:14;7.37;;;4.10;;
9374;SDS011;4727;51.202;6.344;2022-10-23T14:27:40;6.73;;;3.60;;
9374;SDS011;4727;51.202;6.344;2022-10-23T14:30:06;4.00;;;3.60;;
9374;SDS011;4727;51.202;6.344;2022-10-23T14:32:32;7.77;;;4.00;;
9374;SDS011;4727;51.202;6.344;2022-10-23T14:34:57;4.23;;;3.87;;
9374;SDS011;4727;51.202;6.344;2022-10-23T14:37:23;5.27;;;4.13;;
9374;SDS011;4727;51.202;6.344;2022-10-23T14:39:49;5.40;;;4.00;;
9374;SDS011;4727;51.202;6.344;2022-10-23T14:42:14;6.23;;;4.20;;
9374;SDS011;4727;51.202;6.344;2022-10-23T14:44:40;6.03;;;4.07;;
9374;SDS011;4727;51.202;6.344;2022-10-23T14:47:07;6.13;;;4.00;;
9374;SDS011;4727;51.202;6.344;2022-10-23T14:49:32;6.77;;;3.90;;
9374;SDS011;4727;51.202;6.344;2022-10-23T14:51:59;5.63;;;4.03;;
9374;SDS011;4727;51.202;6.344;2022-10-23T14:54:25;6.17;;;4.10;;
9374;SDS011;4727;51.202;6.344;2022-10-23T14:56:52;7.10;;;3.87;;
9374;SDS011;4727;51.202;6.344;2022-10-23T14:59:17;7.07;;;4.30;;
9374;SDS011;4727;51.202;6.344;2022-10-23T15:01:43;5.40;;;4.20;;
9374;SDS011;4727;51.202;6.344;2022-10-23T15:04:09;6.60;;;3.73;;
9374;SDS011;4727;51.202;6.344;2022-10-23T15:06:35;4.83;;;3.70;;
9374;SDS011;4727;51.202;6.344;2022-10-23T15:09:02;6.20;;;3.90;;
9374;SDS011;4727;51.202;6.344;2022-10-23T15:11:28;7.97;;;3.83;;
9374;SDS011;4727;51.202;6.344;2022-10-23T15:13:57;5.40;;;3.57;;
9374;SDS011;4727;51.202;6.344;2022-10-23T15:16:23;5.77;;;3.90;;
9374;SDS011;4727;51.202;6.344;2022-10-23T15:18:50;5.13;;;3.40;;
9374;SDS011;4727;51.202;6.344;2022-10-23T15:21:16;4.67;;;3.33;;
9374;SDS011;4727;51.202;6.344;2022-10-23T15:23:42;4.87;;;3.50;;
9374;SDS011;4727;51.202;6.344;2022-10-23T15:26:11;6.30;;;3.23;;
9374;SDS011;4727;51.202;6.344;2022-10-23T15:28:41;4.20;;;3.07;;
9374;SDS011;4727;51.202;6.344;2022-10-23T15:31:22;4.73;;;3.50;;
9374;SDS011;4727;51.202;6.344;2022-10-23T15:33:56;7.03;;;3.73;;
9374;SDS011;4727;51.202;6.344;2022-10-23T15:36:22;8.90;;;4.03;;
9374;SDS011;4727;51.202;6.344;2022-10-23T15:38:48;6.23;;;4.33;;
9374;SDS011;4727;51.202;6.344;2022-10-23T15:41:19;7.97;;;3.70;;
9374;SDS011;4727;51.202;6.344;2022-10-23T15:43:51;9.60;;;4.57;;
9374;SDS011;4727;51.202;6.344;2022-10-23T15:46:16;12.57;;;4.67;;
9374;SDS011;4727;51.202;6.344;2022-10-23T15:48:42;5.83;;;4.00;;
9374;SDS011;4727;51.202;6.344;2022-10-23T15:51:07;9.33;;;4.50;;
9374;SDS011;4727;51.202;6.344;2022-10-23T15:53:33;6.40;;;4.27;;
9374;SDS011;4727;51.202;6.344;2022-10-23T15:55:58;9.43;;;4.13;;
9374;SDS011;4727;51.202;6.344;2022-10-23T15:58:24;8.47;;;4.23;;
9374;SDS011;4727;51.202;6.344;2022-10-23T16:00:50;10.53;;;4.20;;
9374;SDS011;4727;51.202;6.344;2022-10-23T16:03:16;8.43;;;4.23;;
9374;SDS011;4727;51.202;6.344;2022-10-23T16:05:41;7.77;;;4.53;;
9374;SDS011;4727;51.202;6.344;2022-10-23T16:08:07;9.17;;;4.30;;
9374;SDS011;4727;51.202;6.344;2022-10-23T16:10:37;10.43;;;4.83;;
9374;SDS011;4727;51.202;6.344;2022-10-23T16:13:04;11.93;;;4.77;;
9374;SDS011;4727;51.202;6.344;2022-10-23T16:15:29;6.50;;;4.30;;
9374;SDS011;4727;51.202;6.344;2022-10-23T16:17:55;10.20;;;5.17;;
9374;SDS011;4727;51.202;6.344;2022-10-23T16:20:20;10.17;;;4.57;;
9374;SDS011;4727;51.202;6.344;2022-10-23T16:22:46;9.10;;;4.87;;
9374;SDS011;4727;51.202;6.344;2022-10-23T16:25:12;10.23;;;5.40;;
9374;SDS011;4727;51.202;6.344;2022-10-23T16:27:37;9.00;;;5.60;;
9374;SDS011;4727;51.202;6.344;2022-10-23T16:30:03;6.60;;;5.20;;
9374;SDS011;4727;51.202;6.344;2022-10-23T16:32:32;7.30;;;5.43;;
9374;SDS011;4727;51.202;6.344;2022-10-23T16:34:58;7.37;;;5.30;;
9374;SDS011;4727;51.202;6.344;2022-10-23T16:37:24;8.67;;;5.73;;
9374;SDS011;4727;51.202;6.344;2022-10-23T16:39:55;7.27;;;5.30;;
9374;SDS011;4727;51.202;6.344;2022-10-23T16:42:20;8.77;;;5.23;;
9374;SDS011;4727;51.202;6.344;2022-10-23T16:44:46;6.87;;;4.60;;
9374;SDS011;4727;51.202;6.344;2022-10-23T16:47:11;6.47;;;5.40;;
9374;SDS011;4727;51.202;6.344;2022-10-23T16:49:37;6.90;;;5.53;;
9374;SDS011;4727;51.202;6.344;2022-10-23T16:52:02;7.40;;;5.13;;
9374;SDS011;4727;51.202;6.344;2022-10-23T16:54:28;8.97;;;5.33;;
9374;SDS011;4727;51.202;6.344;2022-10-23T16:56:54;9.47;;;6.07;;
9374;SDS011;4727;51.202;6.344;2022-10-23T16:59:19;5.93;;;5.37;;
9374;SDS011;4727;51.202;6.344;2022-10-23T17:01:47;6.73;;;4.90;;
9374;SDS011;4727;51.202;6.344;2022-10-23T17:04:12;8.00;;;5.20;;
9374;SDS011;4727;51.202;6.344;2022-10-23T17:06:38;8.33;;;5.00;;
9374;SDS011;4727;51.202;6.344;2022-10-23T17:09:04;12.17;;;10.97;;
9374;SDS011;4727;51.202;6.344;2022-10-23T17:11:30;10.10;;;6.00;;
9374;SDS011;4727;51.202;6.344;2022-10-23T17:13:59;20.20;;;18.27;;
9374;SDS011;4727;51.202;6.344;2022-10-23T17:16:33;15.73;;;14.23;;
9374;SDS011;4727;51.202;6.344;2022-10-23T17:19:02;9.80;;;5.50;;
9374;SDS011;4727;51.202;6.344;2022-10-23T17:21:32;11.67;;;5.60;;
9374;SDS011;4727;51.202;6.344;2022-10-23T17:23:59;8.67;;;7.83;;
9374;SDS011;4727;51.202;6.344;2022-10-23T17:26:25;10.30;;;7.13;;
9374;SDS011;4727;51.202;6.344;2022-10-23T17:28:51;8.00;;;6.87;;
9374;SDS011;4727;51.202;6.344;2022-10-23T17:31:18;9.67;;;6.00;;
9374;SDS011;4727;51.202;6.344;2022-10-23T17:33:46;8.90;;;6.33;;
9374;SDS011;4727;51.202;6.344;2022-10-23T17:36:15;11.00;;;7.23;;
9374;SDS011;4727;51.202;6.344;2022-10-23T17:38:42;143.47;;;60.77;;
9374;SDS011;4727;51.202;6.344;2022-10-23T17:41:08;218.93;;;83.23;;
9374;SDS011;4727;51.202;6.344;2022-10-23T17:43:36;121.23;;;53.87;;
9374;SDS011;4727;51.202;6.344;2022-10-23T17:46:05;81.40;;;43.07;;
9374;SDS011;4727;51.202;6.344;2022-10-23T17:48:33;35.70;;;26.63;;
9374;SDS011;4727;51.202;6.344;2022-10-23T17:53:32;11.60;;;7.67;;
9374;SDS011;4727;51.202;6.344;2022-10-23T17:56:06;11.53;;;7.63;;
9374;SDS011;4727;51.202;6.344;2022-10-23T17:58:34;6.67;;;5.10;;
9374;SDS011;4727;51.202;6.344;2022-10-23T18:01:10;6.73;;;4.23;;
9374;SDS011;4727;51.202;6.344;2022-10-23T18:03:37;9.60;;;3.77;;
9374;SDS011;4727;51.202;6.344;2022-10-23T18:06:10;8.60;;;4.00;;
9374;SDS011;4727;51.202;6.344;2022-10-23T18:08:38;5.93;;;3.50;;
9374;SDS011;4727;51.202;6.344;2022-10-23T18:11:05;3.93;;;3.57;;
9374;SDS011;4727;51.202;6.344;2022-10-23T18:13:32;6.63;;;5.47;;
9374;SDS011;4727;51.202;6.344;2022-10-23T18:16:02;7.60;;;5.90;;
9374;SDS011;4727;51.202;6.344;2022-10-23T18:18:33;5.33;;;4.80;;
9374;SDS011;4727;51.202;6.344;2022-10-23T18:20:59;8.40;;;5.37;;
9374;SDS011;4727;51.202;6.344;2022-10-23T18:23:26;4.87;;;2.47;;
9374;SDS011;4727;51.202;6.344;2022-10-23T18:25:52;6.63;;;2.90;;
9374;SDS011;4727;51.202;6.344;2022-10-23T18:28:19;5.77;;;3.10;;
9374;SDS011;4727;51.202;6.344;2022-10-23T18:30:45;7.13;;;5.57;;
9374;SDS011;4727;51.202;6.344;2022-10-23T18:33:13;7.30;;;3.70;;
9374;SDS011;4727;51.202;6.344;2022-10-23T18:35:39;4.63;;;2.40;;
9374;SDS011;4727;51.202;6.344;2022-10-23T18:38:05;5.33;;;3.60;;
9374;SDS011;4727;51.202;6.344;2022-10-23T18:40:31;5.60;;;2.10;;
9374;SDS011;4727;51.202;6.344;2022-10-23T18:42:58;3.97;;;2.10;;
9374;SDS011;4727;51.202;6.344;2022-10-23T18:45:24;4.37;;;2.17;;
9374;SDS011;4727;51.202;6.344;2022-10-23T18:47:50;4.00;;;2.27;;
9374;SDS011;4727;51.202;6.344;2022-10-23T18:50:15;2.63;;;2.07;;
9374;SDS011;4727;51.202;6.344;2022-10-23T18:52:41;3.43;;;2.40;;
9374;SDS011;4727;51.202;6.344;2022-10-23T18:55:07;2.80;;;2.23;;
9374;SDS011;4727;51.202;6.344;2022-10-23T18:57:34;3.67;;;2.17;;
9374;SDS011;4727;51.202;6.344;2022-10-23T19:00:00;3.77;;;2.80;;
9374;SDS011;4727;51.202;6.344;2022-10-23T19:02:26;7.63;;;6.73;;
9374;SDS011;4727;51.202;6.344;2022-10-23T19:04:55;3.83;;;2.50;;
9374;SDS011;4727;51.202;6.344;2022-10-23T19:07:20;4.83;;;2.53;;
9374;SDS011;4727;51.202;6.344;2022-10-23T19:09:46;2.60;;;2.40;;
9374;SDS011;4727;51.202;6.344;2022-10-23T19:12:12;3.30;;;1.83;;
9374;SDS011;4727;51.202;6.344;2022-10-23T19:14:37;5.67;;;2.43;;
9374;SDS011;4727;51.202;6.344;2022-10-23T19:17:07;4.40;;;2.17;;
9374;SDS011;4727;51.202;6.344;2022-10-23T19:19:42;3.20;;;2.67;;
9374;SDS011;4727;51.202;6.344;2022-10-23T19:22:11;3.73;;;2.10;;
9374;SDS011;4727;51.202;6.344;2022-10-23T19:24:42;2.50;;;2.00;;
9374;SDS011;4727;51.202;6.344;2022-10-23T19:27:11;5.83;;;2.60;;
9374;SDS011;4727;51.202;6.344;2022-10-23T19:29:37;2.13;;;2.03;;
9374;SDS011;4727;51.202;6.344;2022-10-23T19:32:06;4.57;;;2.00;;
9374;SDS011;4727;51.202;6.344;2022-10-23T19:34:32;5.33;;;2.10;;
9374;SDS011;4727;51.202;6.344;2022-10-23T19:36:58;3.10;;;2.17;;
9374;SDS011;4727;51.202;6.344;2022-10-23T19:39:24;5.20;;;2.30;;
9374;SDS011;4727;51.202;6.344;2022-10-23T19:41:50;3.27;;;2.40;;
9374;SDS011;4727;51.202;6.344;2022-10-23T19:44:17;2.80;;;2.50;;
9374;SDS011;4727;51.202;6.344;2022-10-23T19:46:42;2.33;;;2.10;;
9374;SDS011;4727;51.202;6.344;2022-10-23T19:49:08;4.00;;;2.10;;
9374;SDS011;4727;51.202;6.344;2022-10-23T19:51:34;3.87;;;2.27;;
9374;SDS011;4727;51.202;6.344;2022-10-23T19:54:00;3.27;;;2.50;;
9374;SDS011;4727;51.202;6.344;2022-10-23T19:56:26;3.53;;;2.30;;
9374;SDS011;4727;51.202;6.344;2022-10-23T19:58:51;5.93;;;2.80;;
9374;SDS011;4727;51.202;6.344;2022-10-23T20:01:18;5.17;;;3.37;;
9374;SDS011;4727;51.202;6.344;2022-10-23T20:03:46;4.47;;;2.03;;
9374;SDS011;4727;51.202;6.344;2022-10-23T20:06:22;4.20;;;3.50;;
9374;SDS011;4727;51.202;6.344;2022-10-23T20:08:50;6.50;;;3.57;;
9374;SDS011;4727;51.202;6.344;2022-10-23T20:11:18;8.27;;;3.97;;
9374;SDS011;4727;51.202;6.344;2022-10-23T20:13:48;8.23;;;4.20;;
9374;SDS011;4727;51.202;6.344;2022-10-23T20:16:25;9.77;;;3.80;;
9374;SDS011;4727;51.202;6.344;2022-10-23T20:18:55;4.50;;;3.40;;
9374;SDS011;4727;51.202;6.344;2022-10-23T20:21:21;6.77;;;3.80;;
9374;SDS011;4727;51.202;6.344;2022-10-23T20:23:48;7.37;;;3.20;;
9374;SDS011;4727;51.202;6.344;2022-10-23T20:26:14;9.53;;;4.20;;
9374;SDS011;4727;51.202;6.344;2022-10-23T20:28:42;3.70;;;3.23;;
9374;SDS011;4727;51.202;6.344;2022-10-23T20:31:11;8.83;;;3.50;;
9374;SDS011;4727;51.202;6.344;2022-10-23T20:33:38;5.27;;;3.40;;
9374;SDS011;4727;51.202;6.344;2022-10-23T20:36:06;3.83;;;3.07;;
9374;SDS011;4727;51.202;6.344;2022-10-23T20:38:33;5.00;;;3.10;;
9374;SDS011;4727;51.202;6.344;2022-10-23T20:41:02;5.80;;;3.27;;
9374;SDS011;4727;51.202;6.344;2022-10-23T20:43:30;7.37;;;3.73;;
9374;SDS011;4727;51.202;6.344;2022-10-23T20:46:07;6.17;;;3.40;;
9374;SDS011;4727;51.202;6.344;2022-10-23T20:48:34;4.53;;;3.43;;
9374;SDS011;4727;51.202;6.344;2022-10-23T20:51:05;4.53;;;3.10;;
9374;SDS011;4727;51.202;6.344;2022-10-23T20:53:33;4.03;;;3.10;;
9374;SDS011;4727;51.202;6.344;2022-10-23T20:56:02;6.47;;;3.03;;
9374;SDS011;4727;51.202;6.344;2022-10-23T20:58:29;7.70;;;3.60;;
9374;SDS011;4727;51.202;6.344;2022-10-23T21:00:54;5.47;;;3.70;;
9374;SDS011;4727;51.202;6.344;2022-10-23T21:03:23;7.17;;;4.60;;
9374;SDS011;4727;51.202;6.344;2022-10-23T21:05:49;8.37;;;4.80;;
9374;SDS011;4727;51.202;6.344;2022-10-23T21:08:14;10.03;;;4.40;;
9374;SDS011;4727;51.202;6.344;2022-10-23T21:10:45;9.10;;;4.57;;
9374;SDS011;4727;51.202;6.344;2022-10-23T21:13:11;9.53;;;4.60;;
9374;SDS011;4727;51.202;6.344;2022-10-23T21:15:37;6.63;;;4.10;;
9374;SDS011;4727;51.202;6.344;2022-10-23T21:18:03;5.77;;;3.80;;
9374;SDS011;4727;51.202;6.344;2022-10-23T21:20:28;4.83;;;4.40;;
9374;SDS011;4727;51.202;6.344;2022-10-23T21:22:54;7.87;;;4.10;;
9374;SDS011;4727;51.202;6.344;2022-10-23T21:25:20;6.57;;;3.70;;
9374;SDS011;4727;51.202;6.344;2022-10-23T21:27:45;6.90;;;3.90;;
9374;SDS011;4727;51.202;6.344;2022-10-23T21:30:11;7.00;;;3.97;;
9374;SDS011;4727;51.202;6.344;2022-10-23T21:32:36;7.80;;;3.97;;
9374;SDS011;4727;51.202;6.344;2022-10-23T21:35:04;7.23;;;3.93;;
9374;SDS011;4727;51.202;6.344;2022-10-23T21:37:30;8.67;;;3.90;;
9374;SDS011;4727;51.202;6.344;2022-10-23T21:39:55;5.33;;;3.57;;
9374;SDS011;4727;51.202;6.344;2022-10-23T21:42:21;5.93;;;3.57;;
9374;SDS011;4727;51.202;6.344;2022-10-23T21:44:47;7.63;;;4.00;;
9374;SDS011;4727;51.202;6.344;2022-10-23T21:47:12;5.10;;;3.40;;
9374;SDS011;4727;51.202;6.344;2022-10-23T21:49:38;5.10;;;3.83;;
9374;SDS011;4727;51.202;6.344;2022-10-23T21:52:03;6.43;;;3.67;;
9374;SDS011;4727;51.202;6.344;2022-10-23T21:54:29;7.60;;;4.03;;
9374;SDS011;4727;51.202;6.344;2022-10-23T21:56:55;8.40;;;3.77;;
9374;SDS011;4727;51.202;6.344;2022-10-23T21:59:21;5.70;;;3.40;;
9374;SDS011;4727;51.202;6.344;2022-10-23T22:01:48;7.97;;;4.13;;
9374;SDS011;4727;51.202;6.344;2022-10-23T22:04:16;9.70;;;4.30;;
9374;SDS011;4727;51.202;6.344;2022-10-23T22:06:43;6.50;;;3.70;;
9374;SDS011;4727;51.202;6.344;2022-10-23T22:09:10;6.10;;;3.83;;
9374;SDS011;4727;51.202;6.344;2022-10-23T22:11:37;5.90;;;4.17;;
9374;SDS011;4727;51.202;6.344;2022-10-23T22:14:03;4.37;;;3.50;;
9374;SDS011;4727;51.202;6.344;2022-10-23T22:16:29;6.80;;;3.87;;
9374;SDS011;4727;51.202;6.344;2022-10-23T22:18:55;5.77;;;3.90;;
9374;SDS011;4727;51.202;6.344;2022-10-23T22:21:21;8.47;;;3.87;;
9374;SDS011;4727;51.202;6.344;2022-10-23T22:23:48;5.10;;;3.60;;
9374;SDS011;4727;51.202;6.344;2022-10-23T22:26:25;7.57;;;3.40;;
9374;SDS011;4727;51.202;6.344;2022-10-23T22:28:57;8.63;;;4.10;;
9374;SDS011;4727;51.202;6.344;2022-10-23T22:31:25;7.40;;;3.30;;
9374;SDS011;4727;51.202;6.344;2022-10-23T22:33:53;9.07;;;3.80;;
9374;SDS011;4727;51.202;6.344;2022-10-23T22:36:19;7.30;;;3.50;;
9374;SDS011;4727;51.202;6.344;2022-10-23T22:38:45;6.90;;;3.93;;
9374;SDS011;4727;51.202;6.344;2022-10-23T22:41:11;8.27;;;3.63;;
9374;SDS011;4727;51.202;6.344;2022-10-23T22:43:38;8.23;;;3.90;;
9374;SDS011;4727;51.202;6.344;2022-10-23T22:46:08;7.93;;;4.13;;
9374;SDS011;4727;51.202;6.344;2022-10-23T22:48:38;6.97;;;3.63;;
9374;SDS011;4727;51.202;6.344;2022-10-23T22:51:06;6.03;;;3.47;;
9374;SDS011;4727;51.202;6.344;2022-10-23T22:53:32;9.43;;;3.77;;
9374;SDS011;4727;51.202;6.344;2022-10-23T22:55:58;6.50;;;3.67;;
9374;SDS011;4727;51.202;6.344;2022-10-23T22:58:24;7.30;;;3.80;;
9374;SDS011;4727;51.202;6.344;2022-10-23T23:00:51;5.93;;;3.53;;
9374;SDS011;4727;51.202;6.344;2022-10-23T23:03:24;8.37;;;3.80;;
9374;SDS011;4727;51.202;6.344;2022-10-23T23:05:50;9.57;;;4.03;;
9374;SDS011;4727;51.202;6.344;2022-10-23T23:08:15;5.57;;;3.57;;
9374;SDS011;4727;51.202;6.344;2022-10-23T23:10:41;8.93;;;3.77;;
9374;SDS011;4727;51.202;6.344;2022-10-23T23:13:06;6.37;;;3.87;;
9374;SDS011;4727;51.202;6.344;2022-10-23T23:15:32;7.10;;;4.07;;
9374;SDS011;4727;51.202;6.344;2022-10-23T23:18:03;7.27;;;4.23;;
9374;SDS011;4727;51.202;6.344;2022-10-23T23:20:29;7.80;;;4.23;;
9374;SDS011;4727;51.202;6.344;2022-10-23T23:22:55;7.93;;;4.53;;
9374;SDS011;4727;51.202;6.344;2022-10-23T23:25:20;5.77;;;4.00;;
9374;SDS011;4727;51.202;6.344;2022-10-23T23:27:46;8.50;;;4.07;;
9374;SDS011;4727;51.202;6.344;2022-10-23T23:30:11;5.47;;;3.97;;
9374;SDS011;4727;51.202;6.344;2022-10-23T23:32:37;7.20;;;4.00;;
9374;SDS011;4727;51.202;6.344;2022-10-23T23:35:02;7.80;;;3.70;;
9374;SDS011;4727;51.202;6.344;2022-10-23T23:37:28;7.20;;;3.57;;
9374;SDS011;4727;51.202;6.344;2022-10-23T23:39:54;8.27;;;3.90;;
9374;SDS011;4727;51.202;6.344;2022-10-23T23:42:19;6.23;;;3.40;;
9374;SDS011;4727;51.202;6.344;2022-10-23T23:44:45;4.80;;;3.50;;
9374;SDS011;4727;51.202;6.344;2022-10-23T23:47:11;7.70;;;3.60;;
9374;SDS011;4727;51.202;6.344;2022-10-23T23:49:36;6.03;;;3.43;;
9374;SDS011;4727;51.202;6.344;2022-10-23T23:52:02;5.20;;;4.03;;
9374;SDS011;4727;51.202;6.344;2022-10-23T23:54:27;6.13;;;3.50;;
9374;SDS011;4727;51.202;6.344;2022-10-23T23:56:56;7.10;;;3.27;;
9374;SDS011;4727;51.202;6.344;2022-10-23T23:59:23;6.13;;;3.73;;
